createdAt,value
2022-08-23T00:01:31.310Z,21.60
2022-08-23T00:04:01.614Z,21.60
2022-08-23T00:06:28.873Z,21.80
2022-08-23T00:08:56.299Z,21.60
2022-08-23T00:11:36.163Z,21.50
2022-08-23T00:14:28.806Z,21.50
2022-08-23T00:16:57.439Z,21.50
2022-08-23T00:19:25.846Z,21.50
2022-08-23T00:21:54.777Z,21.50
2022-08-23T00:24:25.113Z,21.50
2022-08-23T00:26:55.019Z,21.60
2022-08-23T00:29:27.561Z,21.60
2022-08-23T00:31:54.873Z,21.50
2022-08-23T00:34:21.951Z,21.60
2022-08-23T00:36:49.974Z,21.50
2022-08-23T00:39:18.761Z,21.40
2022-08-23T00:41:47.571Z,21.30
2022-08-23T00:44:53.841Z,21.30
2022-08-23T00:47:41.669Z,21.20
2022-08-23T00:50:34.428Z,21.30
2022-08-23T00:53:06.889Z,21.20
2022-08-23T00:55:35.558Z,21.30
2022-08-23T00:58:03.580Z,21.30
2022-08-23T01:00:32.613Z,21.20
2022-08-23T01:03:00.109Z,21.20
2022-08-23T01:05:37.898Z,21.10
2022-08-23T01:08:05.919Z,21.20
2022-08-23T01:10:42.424Z,21.20
2022-08-23T01:13:15.327Z,21.30
2022-08-23T01:16:03.682Z,21.30
2022-08-23T01:18:31.102Z,21.30
2022-08-23T01:21:29.967Z,21.30
2022-08-23T01:24:02.039Z,21.30
2022-08-23T01:26:35.303Z,21.30
2022-08-23T01:29:07.223Z,21.30
2022-08-23T01:31:35.996Z,21.20
2022-08-23T01:34:08.168Z,21.20
2022-08-23T01:36:36.646Z,21.20
2022-08-23T01:39:05.513Z,21.10
2022-08-23T01:41:34.738Z,21.10
2022-08-23T01:44:01.699Z,21.10
2022-08-23T01:46:28.910Z,21.10
2022-08-23T01:48:56.358Z,21.10
2022-08-23T01:51:25.036Z,21.20
2022-08-23T01:53:52.568Z,21.20
2022-08-23T01:56:38.780Z,21.30
2022-08-23T01:59:13.388Z,21.30
2022-08-23T02:01:44.931Z,21.30
2022-08-23T02:04:12.051Z,21.30
2022-08-23T02:06:39.084Z,21.20
2022-08-23T02:09:17.418Z,21.10
2022-08-23T02:11:46.711Z,21.10
2022-08-23T02:14:18.544Z,21.00
2022-08-23T02:17:03.681Z,20.80
2022-08-23T02:19:34.297Z,20.90
2022-08-23T02:22:03.509Z,20.90
2022-08-23T02:24:31.786Z,20.90
2022-08-23T02:27:02.637Z,20.90
2022-08-23T02:29:36.880Z,20.80
2022-08-23T02:32:09.765Z,20.80
2022-08-23T02:34:37.358Z,20.80
2022-08-23T02:37:06.443Z,20.80
2022-08-23T02:39:33.528Z,20.80
2022-08-23T02:42:01.006Z,20.70
2022-08-23T02:44:31.288Z,20.70
2022-08-23T02:46:58.274Z,20.50
2022-08-23T02:49:25.300Z,20.60
2022-08-23T02:51:52.216Z,20.60
2022-08-23T02:54:19.474Z,20.50
2022-08-23T02:56:46.551Z,20.60
2022-08-23T02:59:13.529Z,20.60
2022-08-23T03:01:41.062Z,20.60
2022-08-23T03:04:18.965Z,20.60
2022-08-23T03:06:45.889Z,20.70
2022-08-23T03:09:13.252Z,20.60
2022-08-23T03:11:46.437Z,20.50
2022-08-23T03:14:14.179Z,20.50
2022-08-23T03:16:42.630Z,20.40
2022-08-23T03:19:09.793Z,20.40
2022-08-23T03:21:37.673Z,20.40
2022-08-23T03:24:10.027Z,20.40
2022-08-23T03:26:41.501Z,20.30
2022-08-23T03:29:10.329Z,20.30
2022-08-23T03:31:54.737Z,20.30
2022-08-23T03:34:22.069Z,20.30
2022-08-23T03:36:49.544Z,20.20
2022-08-23T03:39:16.808Z,20.20
2022-08-23T03:41:44.126Z,20.30
2022-08-23T03:44:12.065Z,20.40
2022-08-23T03:46:42.244Z,20.20
2022-08-23T03:49:09.705Z,20.20
2022-08-23T03:51:52.240Z,20.10
2022-08-23T03:54:20.194Z,20.20
2022-08-23T03:56:57.169Z,20.10
2022-08-23T03:59:24.902Z,20.00
2022-08-23T04:01:54.453Z,20.00
2022-08-23T04:04:23.047Z,20.00
2022-08-23T04:07:12.796Z,19.90
2022-08-23T04:09:39.919Z,20.00
2022-08-23T04:12:17.242Z,19.90
2022-08-23T04:14:45.757Z,19.90
2022-08-23T04:17:15.549Z,19.90
2022-08-23T04:19:42.796Z,20.00
2022-08-23T04:22:14.759Z,19.90
2022-08-23T04:24:42.410Z,19.90
2022-08-23T04:27:10.382Z,19.90
2022-08-23T04:29:40.001Z,19.80
2022-08-23T04:32:11.702Z,19.80
2022-08-23T04:34:40.279Z,19.90
2022-08-23T04:37:09.703Z,19.80
2022-08-23T04:39:56.544Z,19.90
2022-08-23T04:42:25.867Z,19.90
2022-08-23T04:44:52.918Z,19.80
2022-08-23T04:47:20.389Z,19.80
2022-08-23T04:49:48.511Z,19.80
2022-08-23T04:52:19.244Z,19.80
2022-08-23T04:54:47.989Z,19.80
2022-08-23T04:57:32.758Z,19.80
2022-08-23T05:00:00.562Z,19.80
2022-08-23T05:02:27.831Z,19.80
2022-08-23T05:04:55.836Z,19.90
2022-08-23T05:07:40.063Z,19.80
2022-08-23T05:10:13.322Z,19.80
2022-08-23T05:12:43.173Z,19.90
2022-08-23T05:15:12.035Z,19.90
2022-08-23T05:17:43.887Z,19.90
2022-08-23T05:20:11.274Z,20.10
2022-08-23T05:22:41.281Z,19.80
2022-08-23T05:25:21.879Z,19.90
2022-08-23T05:27:50.269Z,20.00
2022-08-23T05:30:17.144Z,19.90
2022-08-23T05:32:44.441Z,19.70
2022-08-23T05:35:12.730Z,19.90
2022-08-23T05:37:43.170Z,20.00
2022-08-23T05:40:11.858Z,20.00
2022-08-23T05:42:47.965Z,20.10
2022-08-23T05:45:17.210Z,20.40
2022-08-23T05:47:47.795Z,20.60
2022-08-23T05:50:43.009Z,20.60
2022-08-23T05:53:10.705Z,20.80
2022-08-23T05:55:38.585Z,20.80
2022-08-23T05:58:19.410Z,20.90
2022-08-23T06:00:46.674Z,20.90
2022-08-23T06:03:14.015Z,21.00
2022-08-23T06:05:42.030Z,21.00
2022-08-23T06:08:10.582Z,21.10
2022-08-23T06:10:42.034Z,21.40
2022-08-23T06:13:30.093Z,21.60
2022-08-23T06:15:57.772Z,21.90
2022-08-23T06:18:26.423Z,22.20
2022-08-23T06:21:07.181Z,22.20
2022-08-23T06:23:49.309Z,22.50
2022-08-23T06:26:20.042Z,22.70
2022-08-23T06:28:50.714Z,22.80
2022-08-23T06:31:40.878Z,22.90
2022-08-23T06:34:26.679Z,23.00
2022-08-23T06:37:19.798Z,23.10
2022-08-23T06:40:07.188Z,23.40
2022-08-23T06:42:48.877Z,23.40
2022-08-23T06:45:22.845Z,23.40
2022-08-23T06:48:01.285Z,23.30
2022-08-23T06:50:32.501Z,23.20
2022-08-23T06:53:18.136Z,23.10
2022-08-23T06:55:57.698Z,23.00
2022-08-23T06:58:27.611Z,23.20
2022-08-23T07:01:28.547Z,23.40
2022-08-23T07:04:10.934Z,23.60
2022-08-23T07:06:57.459Z,23.80
2022-08-23T07:09:24.584Z,23.90
2022-08-23T07:11:51.604Z,24.00
2022-08-23T07:14:21.098Z,24.20
2022-08-23T07:16:51.304Z,24.30
2022-08-23T07:19:20.553Z,24.30
2022-08-23T07:21:49.379Z,24.60
2022-08-23T07:24:18.264Z,24.70
2022-08-23T07:26:50.352Z,24.80
2022-08-23T07:29:19.888Z,24.90
2022-08-23T07:31:50.910Z,25.00
2022-08-23T07:34:18.630Z,25.10
2022-08-23T07:36:47.131Z,25.20
2022-08-23T07:39:15.888Z,25.30
2022-08-23T07:41:43.953Z,25.50
2022-08-23T07:44:12.632Z,25.50
2022-08-23T07:46:47.140Z,25.60
2022-08-23T07:49:15.668Z,25.80
2022-08-23T07:51:48.926Z,25.90
2022-08-23T07:54:18.174Z,26.00
2022-08-23T07:57:13.275Z,26.20
2022-08-23T07:59:58.931Z,26.40
2022-08-23T08:02:39.784Z,26.50
2022-08-23T08:05:13.654Z,26.70
2022-08-23T08:07:42.441Z,26.80
2022-08-23T08:10:09.835Z,26.80
2022-08-23T08:12:36.929Z,26.90
2022-08-23T08:15:14.129Z,26.90
2022-08-23T08:17:41.420Z,26.90
2022-08-23T08:20:19.641Z,27.00
2022-08-23T08:22:58.376Z,27.20
2022-08-23T08:25:27.087Z,27.40
2022-08-23T08:27:55.207Z,27.60
2022-08-23T08:30:22.094Z,27.80
2022-08-23T08:32:49.684Z,27.90
2022-08-23T08:35:16.739Z,27.90
2022-08-23T08:37:44.045Z,28.00
2022-08-23T08:40:11.459Z,28.10
2022-08-23T08:42:48.806Z,28.20
2022-08-23T08:45:23.457Z,28.50
2022-08-23T08:48:10.140Z,28.60
2022-08-23T08:50:50.433Z,28.60
2022-08-23T08:53:38.928Z,28.30
2022-08-23T08:56:32.405Z,28.20
2022-08-23T08:59:26.037Z,28.20
2022-08-23T09:01:53.337Z,28.20
2022-08-23T09:04:30.832Z,28.30
2022-08-23T09:07:31.155Z,28.40
2022-08-23T09:10:17.638Z,28.60
2022-08-23T09:13:25.503Z,28.90
2022-08-23T09:16:22.678Z,29.00
2022-08-23T09:18:49.998Z,29.00
2022-08-23T09:21:18.038Z,29.10
2022-08-23T09:23:46.775Z,29.10
2022-08-23T09:26:30.203Z,29.10
2022-08-23T09:29:19.529Z,29.00
2022-08-23T09:31:53.825Z,28.90
2022-08-23T09:34:39.418Z,28.60
2022-08-23T09:37:16.953Z,28.60
2022-08-23T09:39:49.558Z,28.60
2022-08-23T09:42:37.855Z,28.60
2022-08-23T09:45:35.396Z,28.70
2022-08-23T09:48:05.523Z,29.00
2022-08-23T09:50:50.686Z,29.10
2022-08-23T09:53:27.002Z,29.20
2022-08-23T09:55:57.683Z,29.20
2022-08-23T09:58:47.015Z,29.30
2022-08-23T10:01:38.866Z,29.30
2022-08-23T10:04:43.874Z,29.40
2022-08-23T10:07:40.230Z,29.50
2022-08-23T10:10:22.609Z,29.80
2022-08-23T10:12:52.224Z,29.70
2022-08-23T10:15:23.122Z,29.80
2022-08-23T10:18:07.227Z,30.10
2022-08-23T10:20:47.230Z,30.30
2022-08-23T10:23:19.943Z,30.20
2022-08-23T10:26:00.902Z,30.20
2022-08-23T10:29:07.789Z,30.20
2022-08-23T10:31:58.996Z,30.30
2022-08-23T10:34:34.937Z,30.20
2022-08-23T10:37:11.135Z,29.80
2022-08-23T10:40:03.143Z,29.40
2022-08-23T10:42:57.176Z,29.50
2022-08-23T10:45:26.244Z,29.60
2022-08-23T10:48:16.959Z,29.70
2022-08-23T10:50:55.812Z,29.50
2022-08-23T10:53:39.238Z,29.50
2022-08-23T10:56:07.782Z,29.30
2022-08-23T10:59:24.023Z,29.20
2022-08-23T11:01:57.525Z,29.40
2022-08-23T11:05:02.998Z,29.70
2022-08-23T11:07:41.188Z,29.90
2022-08-23T11:10:17.928Z,30.00
2022-08-23T11:13:00.041Z,30.20
2022-08-23T11:16:02.666Z,30.40
2022-08-23T11:19:05.944Z,30.60
2022-08-23T11:21:40.610Z,30.80
2022-08-23T11:24:13.499Z,30.60
2022-08-23T11:26:41.294Z,30.30
2022-08-23T11:29:12.388Z,29.90
2022-08-23T11:31:47.201Z,29.50
2022-08-23T11:34:29.779Z,29.40
2022-08-23T11:37:19.309Z,29.70
2022-08-23T11:39:58.684Z,30.10
2022-08-23T11:42:42.761Z,30.40
2022-08-23T11:45:35.714Z,30.60
2022-08-23T11:48:22.627Z,30.70
2022-08-23T11:51:02.234Z,30.70
2022-08-23T11:53:44.189Z,30.60
2022-08-23T11:56:14.007Z,30.50
2022-08-23T11:59:21.050Z,30.40
2022-08-23T12:01:50.940Z,30.40
2022-08-23T12:04:35.899Z,30.50
2022-08-23T12:07:07.682Z,30.70
2022-08-23T12:09:36.059Z,30.80
2022-08-23T12:12:12.150Z,30.90
2022-08-23T12:14:45.220Z,30.80
2022-08-23T12:17:12.082Z,30.80
2022-08-23T12:19:49.327Z,30.80
2022-08-23T12:22:21.459Z,30.50
2022-08-23T12:25:00.824Z,30.20
2022-08-23T12:27:34.513Z,30.00
2022-08-23T12:30:07.577Z,30.00
2022-08-23T12:33:03.915Z,30.00
2022-08-23T12:35:44.765Z,30.20
2022-08-23T12:38:39.503Z,30.60
2022-08-23T12:41:23.169Z,30.80
2022-08-23T12:44:04.440Z,31.00
2022-08-23T12:46:51.233Z,31.10
2022-08-23T12:49:34.574Z,31.30
2022-08-23T12:52:07.311Z,31.40
2022-08-23T12:54:57.730Z,31.50
2022-08-23T12:57:42.238Z,31.40
2022-08-23T13:00:17.034Z,31.40
2022-08-23T13:03:06.514Z,31.30
2022-08-23T13:05:38.466Z,31.40
2022-08-23T13:08:09.659Z,31.40
2022-08-23T13:10:39.174Z,31.40
2022-08-23T13:13:09.929Z,31.30
2022-08-23T13:15:49.899Z,31.30
2022-08-23T13:18:50.716Z,31.40
2022-08-23T13:21:39.852Z,31.20
2022-08-23T13:24:39.034Z,31.00
2022-08-23T13:27:16.284Z,31.00
2022-08-23T13:29:55.019Z,31.10
2022-08-23T13:32:28.915Z,31.20
2022-08-23T13:35:15.958Z,31.20
2022-08-23T13:37:55.095Z,31.30
2022-08-23T13:40:26.331Z,32.20
2022-08-23T13:43:02.237Z,33.50
2022-08-23T13:45:35.889Z,34.60
2022-08-23T13:48:11.166Z,35.50
2022-08-23T13:50:39.081Z,36.10
2022-08-23T13:53:15.731Z,36.50
2022-08-23T13:55:55.501Z,36.00
2022-08-23T13:58:35.111Z,35.60
2022-08-23T14:01:03.854Z,36.10
2022-08-23T14:03:31.568Z,36.30
2022-08-23T14:05:58.409Z,36.40
2022-08-23T14:08:25.836Z,36.80
2022-08-23T14:10:52.682Z,36.60
2022-08-23T14:13:23.946Z,35.40
2022-08-23T14:16:32.191Z,34.70
2022-08-23T14:18:38.050Z,35.40
2022-08-23T14:21:25.037Z,36.30
2022-08-23T14:23:52.021Z,36.90
2022-08-23T14:26:21.775Z,37.40
2022-08-23T14:28:48.886Z,37.90
2022-08-23T14:31:21.537Z,38.00
2022-08-23T14:33:48.755Z,37.00
2022-08-23T14:36:17.914Z,35.60
2022-08-23T14:38:47.164Z,35.30
2022-08-23T14:41:23.467Z,36.20
2022-08-23T14:43:52.831Z,36.40
2022-08-23T14:46:21.770Z,36.10
2022-08-23T14:48:49.997Z,35.20
2022-08-23T14:51:30.054Z,35.60
2022-08-23T14:53:56.893Z,36.80
2022-08-23T14:56:23.957Z,36.60
2022-08-23T14:58:52.665Z,35.80
2022-08-23T15:01:20.812Z,36.30
2022-08-23T15:03:48.223Z,37.00
2022-08-23T15:06:18.770Z,37.10
2022-08-23T15:08:46.514Z,37.80
2022-08-23T15:14:02.679Z,38.30
2022-08-23T15:16:29.967Z,36.90
2022-08-23T15:18:57.665Z,36.00
2022-08-23T15:21:24.479Z,35.60
2022-08-23T15:23:51.345Z,36.60
2022-08-23T15:26:22.554Z,37.80
2022-08-23T15:28:49.846Z,38.70
2022-08-23T15:31:18.766Z,39.10
2022-08-23T15:33:46.079Z,39.20
2022-08-23T15:36:15.129Z,39.30
2022-08-23T15:38:47.599Z,39.20
2022-08-23T15:41:18.558Z,38.80
2022-08-23T15:43:46.878Z,38.60
2022-08-23T15:46:21.008Z,38.20
2022-08-23T15:48:57.030Z,38.10
2022-08-23T15:51:24.568Z,38.10
2022-08-23T15:53:52.094Z,37.40
2022-08-23T15:56:22.463Z,36.50
2022-08-23T15:58:49.437Z,35.60
2022-08-23T16:01:19.851Z,34.80
2022-08-23T16:03:49.784Z,34.10
2022-08-23T16:06:17.702Z,33.50
2022-08-23T16:08:49.578Z,32.90
2022-08-23T16:11:16.411Z,32.50
2022-08-23T16:13:46.573Z,32.20
2022-08-23T16:16:27.202Z,32.00
2022-08-23T16:18:54.751Z,31.80
2022-08-23T16:21:30.531Z,31.60
2022-08-23T16:23:58.225Z,31.40
2022-08-23T16:26:32.381Z,31.20
2022-08-23T16:29:15.032Z,31.10
2022-08-23T16:31:41.951Z,31.00
2022-08-23T16:34:14.216Z,31.00
2022-08-23T16:36:44.061Z,30.90
2022-08-23T16:39:13.481Z,30.80
2022-08-23T16:41:40.617Z,30.60
2022-08-23T16:44:08.009Z,30.50
2022-08-23T16:46:35.482Z,30.50
2022-08-23T16:49:02.564Z,30.40
2022-08-23T16:51:29.495Z,30.30
2022-08-23T16:54:03.055Z,30.10
2022-08-23T16:56:31.673Z,30.00
2022-08-23T16:58:59.030Z,29.90
2022-08-23T17:01:27.105Z,29.80
2022-08-23T17:03:54.014Z,29.80
2022-08-23T17:06:21.399Z,29.70
2022-08-23T17:08:52.591Z,29.70
2022-08-23T17:11:19.719Z,29.60
2022-08-23T17:13:47.412Z,29.50
2022-08-23T17:16:14.307Z,29.40
2022-08-23T17:18:41.406Z,29.40
2022-08-23T17:21:09.124Z,29.60
2022-08-23T17:23:39.235Z,29.70
2022-08-23T17:26:09.596Z,29.70
2022-08-23T17:28:36.613Z,29.80
2022-08-23T17:31:04.034Z,29.80
2022-08-23T17:33:30.972Z,29.80
2022-08-23T17:35:57.832Z,29.80
2022-08-23T17:38:24.865Z,29.70
2022-08-23T17:40:52.698Z,29.60
2022-08-23T17:43:19.982Z,29.50
2022-08-23T17:45:50.702Z,29.40
2022-08-23T17:48:20.250Z,29.40
2022-08-23T17:50:47.545Z,29.30
2022-08-23T17:53:15.635Z,29.20
2022-08-23T17:55:43.992Z,29.10
2022-08-23T17:58:11.479Z,29.00
2022-08-23T18:00:39.721Z,28.90
2022-08-23T18:03:06.955Z,28.80
2022-08-23T18:05:36.986Z,28.60
2022-08-23T18:08:04.249Z,28.50
2022-08-23T18:10:31.250Z,28.20
2022-08-23T18:12:58.667Z,28.10
2022-08-23T18:15:28.742Z,28.00
2022-08-23T18:17:58.017Z,27.90
2022-08-23T18:20:27.198Z,27.80
2022-08-23T18:22:58.682Z,27.70
2022-08-23T18:25:26.636Z,27.70
2022-08-23T18:28:06.213Z,27.60
2022-08-23T18:30:38.542Z,27.50
2022-08-23T18:33:06.569Z,27.50
2022-08-23T18:35:39.553Z,27.50
2022-08-23T18:38:08.489Z,27.30
2022-08-23T18:40:45.439Z,27.10
2022-08-23T18:43:22.215Z,27.00
2022-08-23T18:45:52.015Z,26.80
2022-08-23T18:48:29.150Z,26.70
2022-08-23T18:50:57.902Z,26.60
2022-08-23T18:53:25.871Z,26.40
2022-08-23T18:55:55.779Z,26.20
2022-08-23T18:58:23.293Z,26.10
2022-08-23T19:01:23.665Z,26.00
2022-08-23T19:03:53.147Z,25.90
2022-08-23T19:06:20.498Z,25.80
2022-08-23T19:08:48.455Z,25.70
2022-08-23T19:11:16.063Z,25.60
2022-08-23T19:13:44.363Z,25.60
2022-08-23T19:16:14.228Z,25.50
2022-08-23T19:18:46.696Z,25.50
2022-08-23T19:21:18.978Z,25.40
2022-08-23T19:23:47.789Z,25.40
2022-08-23T19:26:21.367Z,25.40
2022-08-23T19:28:48.969Z,25.40
2022-08-23T19:31:15.933Z,25.30
2022-08-23T19:33:42.938Z,25.30
2022-08-23T19:36:35.816Z,25.20
2022-08-23T19:39:22.389Z,25.10
2022-08-23T19:41:53.559Z,25.10
2022-08-23T19:44:21.300Z,25.10
2022-08-23T19:47:00.291Z,24.90
2022-08-23T19:49:32.537Z,24.90
2022-08-23T19:52:00.799Z,24.80
2022-08-23T19:54:28.633Z,24.80
2022-08-23T19:56:59.871Z,24.70
2022-08-23T19:59:40.030Z,24.60
2022-08-23T20:02:09.738Z,24.60
2022-08-23T20:04:38.370Z,24.50
2022-08-23T20:07:09.181Z,24.40
2022-08-23T20:09:39.735Z,24.40
2022-08-23T20:12:07.850Z,24.30
2022-08-23T20:14:35.169Z,24.30
2022-08-23T20:17:04.769Z,24.20
2022-08-23T20:19:31.770Z,24.40
2022-08-23T20:22:17.240Z,24.20
2022-08-23T20:24:51.290Z,24.20
2022-08-23T20:27:24.037Z,24.10
2022-08-23T20:29:58.800Z,24.00
2022-08-23T20:32:26.865Z,24.00
2022-08-23T20:34:53.914Z,24.00
2022-08-23T20:37:22.079Z,23.90
2022-08-23T20:39:50.128Z,23.90
2022-08-23T20:42:20.350Z,23.90
2022-08-23T20:44:47.370Z,23.90
2022-08-23T20:47:14.183Z,23.90
2022-08-23T20:49:41.042Z,23.80
2022-08-23T20:52:08.403Z,23.90
2022-08-23T20:54:35.258Z,23.90
2022-08-23T20:57:02.233Z,23.80
2022-08-23T20:59:29.272Z,23.80
2022-08-23T21:01:56.336Z,23.80
2022-08-23T21:04:29.901Z,23.70
2022-08-23T21:06:58.210Z,23.70
2022-08-23T21:09:29.161Z,23.70
2022-08-23T21:11:57.375Z,23.60
2022-08-23T21:14:24.297Z,23.60
2022-08-23T21:16:51.679Z,23.60
2022-08-23T21:19:19.098Z,23.60
2022-08-23T21:21:48.382Z,23.60
2022-08-23T21:24:16.676Z,23.60
2022-08-23T21:26:44.744Z,23.50
2022-08-23T21:29:11.730Z,23.60
2022-08-23T21:31:39.775Z,23.60
2022-08-23T21:34:08.310Z,23.50
2022-08-23T21:36:36.857Z,23.50
2022-08-23T21:39:04.509Z,23.40
2022-08-23T21:41:39.116Z,23.40
2022-08-23T21:44:09.194Z,23.30
2022-08-23T21:46:36.365Z,23.30
2022-08-23T21:49:04.280Z,23.30
2022-08-23T21:51:31.463Z,23.20
2022-08-23T21:54:02.926Z,23.10
2022-08-23T21:56:30.131Z,23.30
2022-08-23T21:59:01.256Z,23.20
2022-08-23T22:01:30.453Z,23.10
2022-08-23T22:03:57.496Z,23.10
2022-08-23T22:06:24.881Z,23.10
2022-08-23T22:08:52.234Z,23.10
2022-08-23T22:11:19.272Z,23.10
2022-08-23T22:13:46.293Z,23.10
2022-08-23T22:16:13.766Z,23.00
2022-08-23T22:18:42.750Z,23.00
2022-08-23T22:21:10.000Z,23.00
2022-08-23T22:23:43.290Z,23.00
2022-08-23T22:26:11.658Z,23.00
2022-08-23T22:28:38.645Z,22.90
2022-08-23T22:31:08.368Z,23.00
2022-08-23T22:33:35.343Z,22.90
2022-08-23T22:36:09.043Z,22.80
2022-08-23T22:38:39.657Z,22.80
2022-08-23T22:41:06.791Z,22.80
2022-08-23T22:43:33.666Z,22.80
2022-08-23T22:46:03.379Z,22.80
2022-08-23T22:48:32.202Z,22.80
2022-08-23T22:51:21.109Z,22.90
2022-08-23T22:53:51.946Z,22.80
2022-08-23T22:56:22.578Z,22.80
2022-08-23T22:58:51.729Z,22.80
2022-08-23T23:01:24.508Z,22.60
2022-08-23T23:03:52.609Z,22.80
2022-08-23T23:06:20.183Z,22.70
2022-08-23T23:08:47.569Z,22.70
2022-08-23T23:11:15.764Z,22.50
2022-08-23T23:13:43.245Z,22.60
2022-08-23T23:16:13.546Z,22.50
2022-08-23T23:19:03.901Z,22.60
2022-08-23T23:22:00.060Z,22.60
2022-08-23T23:24:33.118Z,22.60
2022-08-23T23:27:00.706Z,22.60
2022-08-23T23:29:28.421Z,22.50
2022-08-23T23:31:56.141Z,22.50
2022-08-23T23:34:23.666Z,22.50
2022-08-23T23:36:55.155Z,22.50
2022-08-23T23:39:22.392Z,22.50
2022-08-23T23:41:49.245Z,22.50
2022-08-23T23:44:16.182Z,22.40
2022-08-23T23:46:51.395Z,22.40
2022-08-23T23:49:18.277Z,22.40
2022-08-23T23:51:50.478Z,22.30
2022-08-23T23:54:17.295Z,22.40
2022-08-23T23:56:44.133Z,22.30
2022-08-23T23:59:10.967Z,22.30
